createdAt,value
2023-03-22T00:01:24.846Z,8.19
2023-03-22T00:03:53.399Z,8.35
2023-03-22T00:06:21.191Z,8.74
2023-03-22T00:08:50.501Z,8.52
2023-03-22T00:11:18.658Z,8.88
2023-03-22T00:13:46.935Z,8.55
2023-03-22T00:16:14.818Z,8.31
2023-03-22T00:18:43.671Z,8.47
2023-03-22T00:21:13.461Z,8.16
2023-03-22T00:23:41.296Z,7.94
2023-03-22T00:26:09.204Z,7.99
2023-03-22T00:28:36.712Z,7.90
2023-03-22T00:31:05.522Z,7.61
2023-03-22T00:33:34.193Z,7.70
2023-03-22T00:36:05.594Z,8.52
2023-03-22T00:38:42.546Z,8.23
2023-03-22T00:41:12.865Z,8.60
2023-03-22T00:43:40.731Z,8.49
2023-03-22T00:46:08.422Z,8.46
2023-03-22T00:48:36.100Z,8.23
2023-03-22T00:51:05.454Z,8.24
2023-03-22T00:53:34.277Z,7.76
2023-03-22T00:56:01.741Z,8.05
2023-03-22T00:58:29.216Z,8.18
2023-03-22T01:00:56.822Z,8.03
2023-03-22T01:03:24.722Z,8.34
2023-03-22T01:05:55.509Z,8.27
2023-03-22T01:08:24.681Z,7.77
2023-03-22T01:10:52.349Z,7.74
2023-03-22T01:13:19.888Z,7.44
2023-03-22T01:15:51.097Z,7.39
2023-03-22T01:18:19.018Z,7.40
2023-03-22T01:20:46.489Z,7.17
2023-03-22T01:23:13.966Z,7.15
2023-03-22T01:25:42.759Z,7.37
2023-03-22T01:28:10.398Z,7.19
2023-03-22T01:30:40.473Z,7.34
2023-03-22T01:33:08.586Z,7.16
2023-03-22T01:35:36.485Z,7.02
2023-03-22T01:38:04.162Z,7.25
2023-03-22T01:40:31.637Z,6.88
2023-03-22T01:43:00.534Z,6.61
2023-03-22T01:45:36.545Z,6.69
2023-03-22T01:48:07.731Z,6.95
2023-03-22T01:50:37.430Z,6.71
2023-03-22T01:53:05.387Z,6.77
2023-03-22T01:55:34.270Z,6.71
2023-03-22T01:58:03.949Z,6.89
2023-03-22T02:00:31.894Z,7.18
2023-03-22T02:02:59.413Z,7.33
2023-03-22T02:05:27.494Z,7.44
2023-03-22T02:07:54.981Z,7.76
2023-03-22T02:10:24.265Z,8.03
2023-03-22T02:13:02.021Z,8.07
2023-03-22T02:15:34.741Z,8.17
2023-03-22T02:18:11.623Z,7.85
2023-03-22T02:21:14.233Z,7.84
2023-03-22T02:24:07.602Z,7.66
2023-03-22T02:27:07.180Z,7.64
2023-03-22T02:29:40.477Z,7.68
2023-03-22T02:32:43.264Z,7.60
2023-03-22T02:35:22.470Z,7.71
2023-03-22T02:38:28.709Z,7.34
2023-03-22T02:41:03.398Z,7.33
2023-03-22T02:43:38.551Z,7.65
2023-03-22T02:46:09.737Z,7.82
2023-03-22T02:48:41.703Z,7.96
2023-03-22T02:51:11.521Z,8.07
2023-03-22T02:53:43.322Z,8.13
2023-03-22T02:56:14.304Z,8.01
2023-03-22T02:58:45.612Z,8.17
2023-03-22T03:01:18.040Z,8.19
2023-03-22T03:03:48.152Z,8.15
2023-03-22T03:06:18.105Z,8.30
2023-03-22T03:08:47.588Z,8.45
2023-03-22T03:11:16.388Z,8.41
2023-03-22T03:13:43.870Z,8.32
2023-03-22T03:16:13.161Z,8.42
2023-03-22T03:18:45.599Z,8.19
2023-03-22T03:21:22.108Z,7.82
2023-03-22T03:23:55.541Z,7.64
2023-03-22T03:26:29.394Z,7.64
2023-03-22T03:28:59.590Z,7.83
2023-03-22T03:31:32.684Z,7.85
2023-03-22T03:34:06.568Z,8.28
2023-03-22T03:36:37.783Z,8.47
2023-03-22T03:39:08.081Z,8.45
2023-03-22T03:41:37.049Z,8.52
2023-03-22T03:44:04.966Z,8.49
2023-03-22T03:46:32.531Z,8.47
2023-03-22T03:49:00.137Z,8.35
2023-03-22T03:51:28.382Z,8.46
2023-03-22T03:53:55.872Z,8.40
2023-03-22T03:56:23.348Z,8.49
2023-03-22T03:58:52.141Z,8.52
2023-03-22T04:01:20.674Z,8.55
2023-03-22T04:03:50.573Z,8.36
2023-03-22T04:06:18.108Z,8.45
2023-03-22T04:08:45.859Z,8.50
2023-03-22T04:11:13.366Z,8.47
2023-03-22T04:13:40.835Z,8.49
2023-03-22T04:16:10.651Z,8.55
2023-03-22T04:18:38.870Z,8.43
2023-03-22T04:21:07.022Z,8.34
2023-03-22T04:23:34.493Z,8.29
2023-03-22T04:26:01.963Z,8.32
2023-03-22T04:28:29.452Z,7.91
2023-03-22T04:30:57.344Z,8.24
2023-03-22T04:33:26.427Z,8.17
2023-03-22T04:35:56.834Z,7.92
2023-03-22T04:38:25.241Z,7.87
2023-03-22T04:40:52.768Z,8.13
2023-03-22T04:43:20.244Z,8.29
2023-03-22T04:45:48.774Z,8.13
2023-03-22T04:48:17.553Z,8.18
2023-03-22T04:50:46.370Z,8.30
2023-03-22T04:53:14.177Z,8.37
2023-03-22T04:55:41.664Z,8.36
2023-03-22T04:58:09.238Z,8.35
2023-03-22T05:00:37.667Z,8.30
2023-03-22T05:03:05.831Z,8.14
2023-03-22T05:05:33.481Z,8.19
2023-03-22T05:08:02.253Z,8.42
2023-03-22T05:10:29.723Z,8.02
2023-03-22T05:12:57.233Z,7.76
2023-03-22T05:15:24.697Z,7.78
2023-03-22T05:17:52.190Z,7.50
2023-03-22T05:20:19.663Z,7.92
2023-03-22T05:22:50.534Z,7.83
2023-03-22T05:25:19.389Z,7.74
2023-03-22T05:27:46.877Z,7.61
2023-03-22T05:30:15.518Z,7.78
2023-03-22T05:32:43.840Z,7.84
2023-03-22T05:35:11.582Z,7.87
2023-03-22T05:37:39.310Z,8.03
2023-03-22T05:40:10.071Z,8.21
2023-03-22T05:42:39.061Z,8.08
2023-03-22T05:45:07.552Z,8.19
2023-03-22T05:47:36.112Z,8.04
2023-03-22T05:50:03.693Z,8.15
2023-03-22T05:52:31.166Z,8.23
2023-03-22T05:54:58.667Z,8.11
2023-03-22T05:57:26.421Z,8.23
2023-03-22T05:59:55.212Z,8.24
2023-03-22T06:02:22.814Z,8.39
2023-03-22T06:04:52.062Z,8.34
2023-03-22T06:07:19.749Z,8.42
2023-03-22T06:09:47.796Z,8.46
2023-03-22T06:12:17.082Z,8.24
2023-03-22T06:14:44.755Z,8.21
2023-03-22T06:17:13.520Z,8.35
2023-03-22T06:19:41.006Z,8.55
2023-03-22T06:22:08.746Z,8.60
2023-03-22T06:24:36.326Z,8.46
2023-03-22T06:27:03.836Z,8.20
2023-03-22T06:29:31.539Z,8.07
2023-03-22T06:31:59.014Z,8.44
2023-03-22T06:34:27.792Z,8.71
2023-03-22T06:36:55.455Z,8.76
2023-03-22T06:39:23.452Z,8.65
2023-03-22T06:41:51.607Z,8.70
2023-03-22T06:44:19.532Z,8.89
2023-03-22T06:46:47.000Z,8.83
2023-03-22T06:49:14.496Z,8.88
2023-03-22T06:51:43.286Z,8.89
2023-03-22T06:54:12.593Z,8.84
2023-03-22T06:56:40.083Z,8.97
2023-03-22T06:59:07.616Z,8.57
2023-03-22T07:01:35.186Z,8.71
2023-03-22T07:04:02.751Z,8.94
2023-03-22T07:06:30.823Z,8.94
2023-03-22T07:08:59.675Z,8.59
2023-03-22T07:11:27.198Z,8.80
2023-03-22T07:13:55.150Z,8.79
2023-03-22T07:16:23.155Z,9.00
2023-03-22T07:18:50.742Z,9.08
2023-03-22T07:21:18.201Z,8.96
2023-03-22T07:23:45.719Z,8.98
2023-03-22T07:26:14.546Z,9.07
2023-03-22T07:28:44.476Z,9.06
2023-03-22T07:31:13.090Z,9.22
2023-03-22T07:33:40.944Z,9.21
2023-03-22T07:36:09.686Z,9.47
2023-03-22T07:38:37.618Z,9.43
2023-03-22T07:41:05.983Z,9.78
2023-03-22T07:43:47.364Z,10.03
2023-03-22T07:46:20.403Z,9.60
2023-03-22T07:48:47.903Z,10.12
2023-03-22T07:51:15.396Z,10.26
2023-03-22T07:53:42.868Z,10.31
2023-03-22T07:56:10.788Z,10.31
2023-03-22T07:58:39.671Z,10.29
2023-03-22T08:01:09.206Z,10.53
2023-03-22T08:03:37.534Z,10.36
2023-03-22T08:06:07.675Z,10.63
2023-03-22T08:08:35.569Z,10.81
2023-03-22T08:11:03.187Z,10.85
2023-03-22T08:13:31.013Z,10.83
2023-03-22T08:16:00.851Z,10.85
2023-03-22T08:18:28.532Z,11.11
2023-03-22T08:20:57.047Z,11.06
2023-03-22T08:23:38.465Z,11.12
2023-03-22T08:26:08.883Z,11.29
2023-03-22T08:28:36.474Z,11.32
2023-03-22T08:31:13.214Z,11.57
2023-03-22T08:33:41.466Z,11.54
2023-03-22T08:36:12.099Z,11.81
2023-03-22T08:38:39.568Z,11.79
2023-03-22T08:41:07.260Z,12.07
2023-03-22T08:43:34.800Z,12.19
2023-03-22T08:46:02.376Z,12.21
2023-03-22T08:48:31.855Z,12.19
2023-03-22T08:50:59.418Z,12.12
2023-03-22T08:53:26.916Z,12.13
2023-03-22T08:55:58.072Z,12.25
2023-03-22T08:58:25.605Z,12.44
2023-03-22T09:00:53.127Z,12.48
2023-03-22T09:03:20.839Z,12.34
2023-03-22T09:05:49.622Z,12.47
2023-03-22T09:08:19.422Z,12.86
2023-03-22T09:10:51.248Z,13.02
2023-03-22T09:13:18.951Z,13.07
2023-03-22T09:15:46.497Z,12.77
2023-03-22T09:18:14.568Z,13.18
2023-03-22T09:20:42.705Z,13.26
2023-03-22T09:23:11.872Z,13.04
2023-03-22T09:25:39.626Z,12.97
2023-03-22T09:28:07.718Z,13.37
2023-03-22T09:30:36.087Z,13.21
2023-03-22T09:33:03.811Z,13.15
2023-03-22T09:35:32.208Z,13.40
2023-03-22T09:38:00.035Z,12.96
2023-03-22T09:40:31.396Z,13.40
2023-03-22T09:43:00.184Z,13.51
2023-03-22T09:45:37.887Z,13.33
2023-03-22T09:48:07.089Z,13.65
2023-03-22T09:50:37.115Z,14.04
2023-03-22T09:53:04.610Z,13.66
2023-03-22T09:55:38.876Z,13.54
2023-03-22T09:58:11.885Z,14.05
2023-03-22T10:00:42.205Z,14.08
2023-03-22T10:03:21.026Z,13.79
2023-03-22T10:05:51.494Z,13.98
2023-03-22T10:08:26.847Z,14.21
2023-03-22T10:10:55.673Z,14.34
2023-03-22T10:13:28.666Z,14.22
2023-03-22T10:15:58.979Z,14.26
2023-03-22T10:18:29.461Z,14.38
2023-03-22T10:21:01.525Z,14.33
2023-03-22T10:23:32.731Z,14.37
2023-03-22T10:26:02.152Z,14.20
2023-03-22T10:28:33.340Z,14.00
2023-03-22T10:31:00.922Z,13.81
2023-03-22T10:33:36.611Z,14.17
2023-03-22T10:36:05.620Z,14.08
2023-03-22T10:38:35.597Z,14.38
2023-03-22T10:41:04.784Z,14.49
2023-03-22T10:43:34.464Z,14.26
2023-03-22T10:46:04.729Z,14.45
2023-03-22T10:48:35.450Z,14.68
2023-03-22T10:51:04.168Z,14.76
2023-03-22T10:53:37.788Z,14.73
2023-03-22T10:56:11.190Z,14.73
2023-03-22T10:58:38.700Z,14.80
2023-03-22T11:01:09.276Z,14.83
2023-03-22T11:03:41.152Z,15.10
2023-03-22T11:06:11.037Z,15.17
2023-03-22T11:08:44.956Z,15.11
2023-03-22T11:11:21.920Z,15.42
2023-03-22T11:13:55.584Z,15.29
2023-03-22T11:16:24.314Z,15.38
2023-03-22T11:18:52.049Z,15.35
2023-03-22T11:21:21.137Z,15.30
2023-03-22T11:23:55.827Z,15.54
2023-03-22T11:26:30.460Z,15.62
2023-03-22T11:29:11.918Z,15.30
2023-03-22T11:31:57.311Z,15.42
2023-03-22T11:34:27.599Z,15.35
2023-03-22T11:36:56.946Z,15.56
2023-03-22T11:39:28.197Z,15.41
2023-03-22T11:41:58.610Z,15.38
2023-03-22T11:44:27.401Z,15.30
2023-03-22T11:46:57.833Z,15.35
2023-03-22T11:49:27.586Z,15.72
2023-03-22T11:51:56.301Z,15.61
2023-03-22T11:54:29.435Z,15.79
2023-03-22T11:57:01.294Z,15.63
2023-03-22T11:59:30.444Z,15.66
2023-03-22T12:02:01.644Z,15.52
2023-03-22T12:04:31.185Z,15.66
2023-03-22T12:07:00.993Z,15.64
2023-03-22T12:09:35.637Z,15.66
2023-03-22T12:12:05.934Z,15.59
2023-03-22T12:14:35.997Z,15.71
2023-03-22T12:17:07.262Z,15.51
2023-03-22T12:19:43.471Z,15.67
2023-03-22T12:22:14.657Z,15.65
2023-03-22T12:24:43.042Z,15.54
2023-03-22T12:27:17.269Z,15.53
2023-03-22T12:29:48.435Z,15.58
2023-03-22T12:32:18.861Z,15.54
2023-03-22T12:34:48.804Z,15.59
2023-03-22T12:37:21.197Z,15.67
2023-03-22T12:39:51.800Z,15.69
2023-03-22T12:42:24.965Z,16.05
2023-03-22T12:45:04.216Z,15.91
2023-03-22T12:47:36.689Z,16.40
2023-03-22T12:50:07.364Z,16.73
2023-03-22T12:52:45.358Z,16.75
2023-03-22T12:55:21.273Z,16.72
2023-03-22T12:57:54.316Z,16.53
2023-03-22T13:00:23.343Z,16.59
2023-03-22T13:02:55.974Z,16.56
2023-03-22T13:05:28.452Z,16.85
2023-03-22T13:07:58.864Z,17.02
2023-03-22T13:10:47.354Z,17.03
2023-03-22T13:13:34.942Z,16.76
2023-03-22T13:16:15.491Z,16.80
2023-03-22T13:18:59.845Z,16.60
2023-03-22T13:21:29.280Z,16.81
2023-03-22T13:24:01.546Z,16.26
2023-03-22T13:26:34.957Z,16.65
2023-03-22T13:29:11.163Z,17.08
2023-03-22T13:31:42.471Z,16.79
2023-03-22T13:34:15.427Z,17.04
2023-03-22T13:36:50.557Z,16.92
2023-03-22T13:39:18.337Z,16.75
2023-03-22T13:41:49.390Z,16.96
2023-03-22T13:44:26.809Z,17.16
2023-03-22T13:46:58.768Z,17.15
2023-03-22T13:49:48.007Z,16.95
2023-03-22T13:52:40.303Z,17.06
2023-03-22T13:55:18.855Z,16.37
2023-03-22T13:57:58.868Z,16.20
2023-03-22T14:00:48.031Z,16.57
2023-03-22T14:03:25.480Z,16.25
2023-03-22T14:06:02.798Z,16.17
2023-03-22T14:08:31.331Z,16.33
2023-03-22T14:11:04.106Z,16.16
2023-03-22T14:13:34.341Z,16.13
2023-03-22T14:16:08.829Z,15.97
2023-03-22T14:18:38.234Z,15.87
2023-03-22T14:21:08.109Z,15.70
